sensor_id;sensor_type;location;lat;lon;timestamp;P1;durP1;ratioP1;P2;durP2;ratioP2
10232;SDS011;5161;48.174;11.756;2023-02-28T00:00:06;4.93;;;4.40;;
10232;SDS011;5161;48.174;11.756;2023-02-28T00:02:36;5.20;;;4.60;;
10232;SDS011;5161;48.174;11.756;2023-02-28T00:05:03;5.33;;;4.60;;
10232;SDS011;5161;48.174;11.756;2023-02-28T00:07:29;5.17;;;4.60;;
10232;SDS011;5161;48.174;11.756;2023-02-28T00:09:55;4.90;;;4.40;;
10232;SDS011;5161;48.174;11.756;2023-02-28T00:12:21;5.40;;;4.70;;
10232;SDS011;5161;48.174;11.756;2023-02-28T00:14:47;5.60;;;4.37;;
10232;SDS011;5161;48.174;11.756;2023-02-28T00:17:12;7.50;;;4.80;;
10232;SDS011;5161;48.174;11.756;2023-02-28T00:19:38;5.70;;;5.07;;
10232;SDS011;5161;48.174;11.756;2023-02-28T00:22:03;6.50;;;4.80;;
10232;SDS011;5161;48.174;11.756;2023-02-28T00:24:29;6.30;;;4.73;;
10232;SDS011;5161;48.174;11.756;2023-02-28T00:26:54;5.63;;;4.63;;
10232;SDS011;5161;48.174;11.756;2023-02-28T00:29:20;8.03;;;4.67;;
10232;SDS011;5161;48.174;11.756;2023-02-28T00:31:45;5.70;;;4.67;;
10232;SDS011;5161;48.174;11.756;2023-02-28T00:34:11;7.97;;;5.10;;
10232;SDS011;5161;48.174;11.756;2023-02-28T00:36:36;5.27;;;4.73;;
10232;SDS011;5161;48.174;11.756;2023-02-28T00:39:03;5.80;;;4.93;;
10232;SDS011;5161;48.174;11.756;2023-02-28T00:41:28;6.07;;;5.10;;
10232;SDS011;5161;48.174;11.756;2023-02-28T00:43:54;5.53;;;4.87;;
10232;SDS011;5161;48.174;11.756;2023-02-28T00:46:19;5.87;;;4.90;;
10232;SDS011;5161;48.174;11.756;2023-02-28T00:48:45;5.83;;;4.87;;
10232;SDS011;5161;48.174;11.756;2023-02-28T00:51:11;6.20;;;4.90;;
10232;SDS011;5161;48.174;11.756;2023-02-28T00:53:36;6.37;;;5.10;;
10232;SDS011;5161;48.174;11.756;2023-02-28T00:56:02;5.30;;;4.80;;
10232;SDS011;5161;48.174;11.756;2023-02-28T00:58:28;6.83;;;5.10;;
10232;SDS011;5161;48.174;11.756;2023-02-28T01:00:53;5.90;;;5.30;;
10232;SDS011;5161;48.174;11.756;2023-02-28T01:03:19;6.47;;;5.47;;
10232;SDS011;5161;48.174;11.756;2023-02-28T01:05:46;5.70;;;5.07;;
10232;SDS011;5161;48.174;11.756;2023-02-28T01:08:12;6.03;;;5.17;;
10232;SDS011;5161;48.174;11.756;2023-02-28T01:10:39;5.60;;;5.07;;
10232;SDS011;5161;48.174;11.756;2023-02-28T01:13:04;5.83;;;5.10;;
10232;SDS011;5161;48.174;11.756;2023-02-28T01:15:30;5.33;;;4.83;;
10232;SDS011;5161;48.174;11.756;2023-02-28T01:17:57;6.97;;;4.80;;
10232;SDS011;5161;48.174;11.756;2023-02-28T01:20:23;6.53;;;5.30;;
10232;SDS011;5161;48.174;11.756;2023-02-28T01:22:49;5.73;;;4.73;;
10232;SDS011;5161;48.174;11.756;2023-02-28T01:25:14;5.63;;;4.70;;
10232;SDS011;5161;48.174;11.756;2023-02-28T01:27:40;6.47;;;5.07;;
10232;SDS011;5161;48.174;11.756;2023-02-28T01:30:09;6.53;;;5.10;;
10232;SDS011;5161;48.174;11.756;2023-02-28T01:32:36;5.50;;;5.00;;
10232;SDS011;5161;48.174;11.756;2023-02-28T01:35:01;6.43;;;5.30;;
10232;SDS011;5161;48.174;11.756;2023-02-28T01:37:27;5.47;;;4.97;;
10232;SDS011;5161;48.174;11.756;2023-02-28T01:39:53;6.00;;;5.17;;
10232;SDS011;5161;48.174;11.756;2023-02-28T01:42:18;5.47;;;4.70;;
10232;SDS011;5161;48.174;11.756;2023-02-28T01:47:24;7.20;;;5.10;;
10232;SDS011;5161;48.174;11.756;2023-02-28T01:49:54;6.07;;;5.17;;
10232;SDS011;5161;48.174;11.756;2023-02-28T01:52:20;6.13;;;5.40;;
10232;SDS011;5161;48.174;11.756;2023-02-28T01:54:56;7.80;;;5.30;;
10232;SDS011;5161;48.174;11.756;2023-02-28T01:57:34;5.60;;;5.00;;
10232;SDS011;5161;48.174;11.756;2023-02-28T02:00:12;5.80;;;5.20;;
10232;SDS011;5161;48.174;11.756;2023-02-28T02:02:44;7.37;;;5.00;;
10232;SDS011;5161;48.174;11.756;2023-02-28T02:05:16;6.13;;;5.27;;
10232;SDS011;5161;48.174;11.756;2023-02-28T02:07:48;6.33;;;5.53;;
10232;SDS011;5161;48.174;11.756;2023-02-28T02:10:42;5.93;;;5.17;;
10232;SDS011;5161;48.174;11.756;2023-02-28T02:15:45;8.40;;;5.30;;
10232;SDS011;5161;48.174;11.756;2023-02-28T02:18:20;6.73;;;5.57;;
10232;SDS011;5161;48.174;11.756;2023-02-28T02:21:18;7.03;;;5.23;;
10232;SDS011;5161;48.174;11.756;2023-02-28T02:26:46;6.90;;;5.33;;
10232;SDS011;5161;48.174;11.756;2023-02-28T02:32:16;6.80;;;5.40;;
10232;SDS011;5161;48.174;11.756;2023-02-28T02:40:20;7.30;;;5.53;;
10232;SDS011;5161;48.174;11.756;2023-02-28T02:43:04;7.00;;;5.67;;
10232;SDS011;5161;48.174;11.756;2023-02-28T02:45:48;6.77;;;5.40;;
10232;SDS011;5161;48.174;11.756;2023-02-28T02:48:19;7.00;;;5.70;;
10232;SDS011;5161;48.174;11.756;2023-02-28T02:50:49;8.20;;;5.60;;
10232;SDS011;5161;48.174;11.756;2023-02-28T02:53:26;6.30;;;5.33;;
10232;SDS011;5161;48.174;11.756;2023-02-28T02:55:59;6.30;;;5.40;;
10232;SDS011;5161;48.174;11.756;2023-02-28T02:58:28;6.70;;;5.87;;
10232;SDS011;5161;48.174;11.756;2023-02-28T03:00:59;6.70;;;6.00;;
10232;SDS011;5161;48.174;11.756;2023-02-28T03:03:27;6.47;;;5.50;;
10232;SDS011;5161;48.174;11.756;2023-02-28T03:05:55;8.20;;;5.70;;
10232;SDS011;5161;48.174;11.756;2023-02-28T03:08:25;6.90;;;5.60;;
10232;SDS011;5161;48.174;11.756;2023-02-28T03:10:54;7.00;;;5.97;;
10232;SDS011;5161;48.174;11.756;2023-02-28T03:13:44;6.90;;;6.00;;
10232;SDS011;5161;48.174;11.756;2023-02-28T03:25:15;7.03;;;5.70;;
10232;SDS011;5161;48.174;11.756;2023-02-28T03:30:51;8.27;;;6.33;;
10232;SDS011;5161;48.174;11.756;2023-02-28T03:33:23;7.90;;;6.50;;
10232;SDS011;5161;48.174;11.756;2023-02-28T03:35:57;8.13;;;6.73;;
10232;SDS011;5161;48.174;11.756;2023-02-28T03:41:01;8.73;;;6.70;;
10232;SDS011;5161;48.174;11.756;2023-02-28T03:43:36;8.13;;;6.80;;
10232;SDS011;5161;48.174;11.756;2023-02-28T03:46:08;8.63;;;6.97;;
10232;SDS011;5161;48.174;11.756;2023-02-28T03:51:08;9.10;;;6.23;;
10232;SDS011;5161;48.174;11.756;2023-02-28T03:53:39;10.00;;;7.00;;
10232;SDS011;5161;48.174;11.756;2023-02-28T03:56:15;10.33;;;7.40;;
10232;SDS011;5161;48.174;11.756;2023-02-28T03:58:47;8.83;;;7.33;;
10232;SDS011;5161;48.174;11.756;2023-02-28T04:01:39;8.97;;;7.50;;
10232;SDS011;5161;48.174;11.756;2023-02-28T04:04:10;10.60;;;7.90;;
10232;SDS011;5161;48.174;11.756;2023-02-28T04:06:37;11.93;;;8.00;;
10232;SDS011;5161;48.174;11.756;2023-02-28T04:09:04;11.30;;;7.57;;
10232;SDS011;5161;48.174;11.756;2023-02-28T04:14:01;10.33;;;7.87;;
10232;SDS011;5161;48.174;11.756;2023-02-28T04:16:28;8.87;;;7.77;;
10232;SDS011;5161;48.174;11.756;2023-02-28T04:18:54;11.00;;;8.23;;
10232;SDS011;5161;48.174;11.756;2023-02-28T04:21:26;11.03;;;8.37;;
10232;SDS011;5161;48.174;11.756;2023-02-28T04:23:56;10.33;;;8.40;;
10232;SDS011;5161;48.174;11.756;2023-02-28T04:26:35;12.33;;;9.30;;
10232;SDS011;5161;48.174;11.756;2023-02-28T04:29:02;11.77;;;9.10;;
10232;SDS011;5161;48.174;11.756;2023-02-28T04:31:29;11.37;;;9.27;;
10232;SDS011;5161;48.174;11.756;2023-02-28T04:33:54;12.37;;;9.73;;
10232;SDS011;5161;48.174;11.756;2023-02-28T04:36:20;10.83;;;8.67;;
10232;SDS011;5161;48.174;11.756;2023-02-28T04:38:47;12.57;;;9.30;;
10232;SDS011;5161;48.174;11.756;2023-02-28T04:41:14;11.00;;;8.73;;
10232;SDS011;5161;48.174;11.756;2023-02-28T04:43:40;12.70;;;9.17;;
10232;SDS011;5161;48.174;11.756;2023-02-28T04:46:05;13.43;;;9.47;;
10232;SDS011;5161;48.174;11.756;2023-02-28T04:48:33;11.50;;;9.20;;
10232;SDS011;5161;48.174;11.756;2023-02-28T04:51:03;13.50;;;10.13;;
10232;SDS011;5161;48.174;11.756;2023-02-28T04:53:30;14.23;;;10.27;;
10232;SDS011;5161;48.174;11.756;2023-02-28T04:55:56;14.97;;;10.17;;
10232;SDS011;5161;48.174;11.756;2023-02-28T04:58:22;12.60;;;9.83;;
10232;SDS011;5161;48.174;11.756;2023-02-28T05:00:49;13.40;;;10.27;;
10232;SDS011;5161;48.174;11.756;2023-02-28T05:03:15;13.47;;;10.03;;
10232;SDS011;5161;48.174;11.756;2023-02-28T05:05:41;12.73;;;9.87;;
10232;SDS011;5161;48.174;11.756;2023-02-28T05:08:06;14.10;;;10.50;;
10232;SDS011;5161;48.174;11.756;2023-02-28T05:10:32;13.77;;;10.77;;
10232;SDS011;5161;48.174;11.756;2023-02-28T05:12:58;15.33;;;11.20;;
10232;SDS011;5161;48.174;11.756;2023-02-28T05:15:23;14.27;;;10.77;;
10232;SDS011;5161;48.174;11.756;2023-02-28T05:17:49;15.00;;;10.67;;
10232;SDS011;5161;48.174;11.756;2023-02-28T05:20:15;17.80;;;13.00;;
10232;SDS011;5161;48.174;11.756;2023-02-28T05:22:40;15.50;;;11.47;;
10232;SDS011;5161;48.174;11.756;2023-02-28T05:25:08;16.13;;;11.33;;
10232;SDS011;5161;48.174;11.756;2023-02-28T05:27:37;15.33;;;11.20;;
10232;SDS011;5161;48.174;11.756;2023-02-28T05:30:02;14.73;;;11.60;;
10232;SDS011;5161;48.174;11.756;2023-02-28T05:32:29;15.93;;;12.37;;
10232;SDS011;5161;48.174;11.756;2023-02-28T05:34:54;15.83;;;12.17;;
10232;SDS011;5161;48.174;11.756;2023-02-28T05:37:20;15.93;;;12.33;;
10232;SDS011;5161;48.174;11.756;2023-02-28T05:39:46;21.40;;;12.87;;
10232;SDS011;5161;48.174;11.756;2023-02-28T05:42:11;17.67;;;12.30;;
10232;SDS011;5161;48.174;11.756;2023-02-28T05:44:37;17.13;;;12.90;;
10232;SDS011;5161;48.174;11.756;2023-02-28T05:47:03;17.60;;;12.83;;
10232;SDS011;5161;48.174;11.756;2023-02-28T05:49:28;17.80;;;13.23;;
10232;SDS011;5161;48.174;11.756;2023-02-28T05:51:54;17.17;;;12.60;;
10232;SDS011;5161;48.174;11.756;2023-02-28T05:54:19;17.80;;;13.47;;
10232;SDS011;5161;48.174;11.756;2023-02-28T05:56:45;20.20;;;14.60;;
10232;SDS011;5161;48.174;11.756;2023-02-28T05:59:14;20.90;;;14.00;;
10232;SDS011;5161;48.174;11.756;2023-02-28T06:01:40;19.40;;;14.13;;
10232;SDS011;5161;48.174;11.756;2023-02-28T06:04:10;20.60;;;14.17;;
10232;SDS011;5161;48.174;11.756;2023-02-28T06:06:36;21.10;;;14.57;;
10232;SDS011;5161;48.174;11.756;2023-02-28T06:09:02;19.97;;;14.87;;
10232;SDS011;5161;48.174;11.756;2023-02-28T06:11:28;20.73;;;14.53;;
10232;SDS011;5161;48.174;11.756;2023-02-28T06:13:55;20.63;;;15.30;;
10232;SDS011;5161;48.174;11.756;2023-02-28T06:16:22;19.83;;;15.00;;
10232;SDS011;5161;48.174;11.756;2023-02-28T06:18:48;22.30;;;15.07;;
10232;SDS011;5161;48.174;11.756;2023-02-28T06:21:13;22.23;;;15.33;;
10232;SDS011;5161;48.174;11.756;2023-02-28T06:23:39;21.20;;;15.47;;
10232;SDS011;5161;48.174;11.756;2023-02-28T06:26:05;21.27;;;15.13;;
10232;SDS011;5161;48.174;11.756;2023-02-28T06:28:30;22.47;;;13.93;;
10232;SDS011;5161;48.174;11.756;2023-02-28T06:30:56;18.20;;;13.20;;
10232;SDS011;5161;48.174;11.756;2023-02-28T06:33:22;16.93;;;13.23;;
10232;SDS011;5161;48.174;11.756;2023-02-28T06:35:51;17.70;;;13.27;;
10232;SDS011;5161;48.174;11.756;2023-02-28T06:38:18;16.80;;;12.37;;
10232;SDS011;5161;48.174;11.756;2023-02-28T06:40:43;17.30;;;11.97;;
10232;SDS011;5161;48.174;11.756;2023-02-28T06:43:09;18.63;;;13.47;;
10232;SDS011;5161;48.174;11.756;2023-02-28T06:45:41;17.27;;;12.93;;
10232;SDS011;5161;48.174;11.756;2023-02-28T06:48:08;16.43;;;12.00;;
10232;SDS011;5161;48.174;11.756;2023-02-28T06:50:34;15.60;;;12.50;;
10232;SDS011;5161;48.174;11.756;2023-02-28T06:52:59;16.73;;;12.73;;
10232;SDS011;5161;48.174;11.756;2023-02-28T06:55:25;16.80;;;12.37;;
10232;SDS011;5161;48.174;11.756;2023-02-28T06:57:50;18.40;;;13.23;;
10232;SDS011;5161;48.174;11.756;2023-02-28T07:00:16;16.30;;;12.67;;
10232;SDS011;5161;48.174;11.756;2023-02-28T07:02:42;18.07;;;12.30;;
10232;SDS011;5161;48.174;11.756;2023-02-28T07:05:07;17.10;;;12.57;;
10232;SDS011;5161;48.174;11.756;2023-02-28T07:07:33;18.30;;;12.90;;
10232;SDS011;5161;48.174;11.756;2023-02-28T07:10:01;21.73;;;13.67;;
10232;SDS011;5161;48.174;11.756;2023-02-28T07:12:27;16.73;;;12.50;;
10232;SDS011;5161;48.174;11.756;2023-02-28T07:14:53;17.37;;;13.27;;
10232;SDS011;5161;48.174;11.756;2023-02-28T07:17:20;17.03;;;12.70;;
10232;SDS011;5161;48.174;11.756;2023-02-28T07:19:46;18.90;;;13.73;;
10232;SDS011;5161;48.174;11.756;2023-02-28T07:22:11;21.37;;;13.47;;
10232;SDS011;5161;48.174;11.756;2023-02-28T07:24:37;19.23;;;14.07;;
10232;SDS011;5161;48.174;11.756;2023-02-28T07:27:03;20.70;;;16.67;;
10232;SDS011;5161;48.174;11.756;2023-02-28T07:29:29;19.87;;;16.07;;
10232;SDS011;5161;48.174;11.756;2023-02-28T07:31:54;20.73;;;15.63;;
10232;SDS011;5161;48.174;11.756;2023-02-28T07:34:21;20.90;;;16.13;;
10232;SDS011;5161;48.174;11.756;2023-02-28T07:36:46;21.90;;;15.80;;
10232;SDS011;5161;48.174;11.756;2023-02-28T07:39:12;22.97;;;15.87;;
10232;SDS011;5161;48.174;11.756;2023-02-28T07:41:38;20.57;;;16.03;;
10232;SDS011;5161;48.174;11.756;2023-02-28T07:44:08;21.63;;;15.33;;
10232;SDS011;5161;48.174;11.756;2023-02-28T07:46:35;21.97;;;15.60;;
10232;SDS011;5161;48.174;11.756;2023-02-28T07:49:01;19.73;;;14.90;;
10232;SDS011;5161;48.174;11.756;2023-02-28T07:51:28;22.70;;;15.87;;
10232;SDS011;5161;48.174;11.756;2023-02-28T07:53:54;22.30;;;15.77;;
10232;SDS011;5161;48.174;11.756;2023-02-28T07:56:20;22.27;;;15.20;;
10232;SDS011;5161;48.174;11.756;2023-02-28T07:58:46;23.43;;;15.53;;
10232;SDS011;5161;48.174;11.756;2023-02-28T08:01:11;22.17;;;16.70;;
10232;SDS011;5161;48.174;11.756;2023-02-28T08:03:38;22.07;;;16.10;;
10232;SDS011;5161;48.174;11.756;2023-02-28T08:06:04;21.33;;;15.87;;
10232;SDS011;5161;48.174;11.756;2023-02-28T08:08:31;22.87;;;16.13;;
10232;SDS011;5161;48.174;11.756;2023-02-28T08:10:58;23.17;;;16.53;;
10232;SDS011;5161;48.174;11.756;2023-02-28T08:13:25;24.83;;;16.37;;
10232;SDS011;5161;48.174;11.756;2023-02-28T08:15:52;23.93;;;16.47;;
10232;SDS011;5161;48.174;11.756;2023-02-28T08:18:19;22.00;;;16.40;;
10232;SDS011;5161;48.174;11.756;2023-02-28T08:20:45;20.87;;;16.00;;
10232;SDS011;5161;48.174;11.756;2023-02-28T08:23:10;21.07;;;15.70;;
10232;SDS011;5161;48.174;11.756;2023-02-28T08:25:36;22.10;;;16.23;;
10232;SDS011;5161;48.174;11.756;2023-02-28T08:28:01;21.57;;;16.47;;
10232;SDS011;5161;48.174;11.756;2023-02-28T08:30:27;22.63;;;16.43;;
10232;SDS011;5161;48.174;11.756;2023-02-28T08:32:53;21.93;;;16.63;;
10232;SDS011;5161;48.174;11.756;2023-02-28T08:35:19;22.83;;;16.80;;
10232;SDS011;5161;48.174;11.756;2023-02-28T08:37:47;22.27;;;16.67;;
10232;SDS011;5161;48.174;11.756;2023-02-28T08:40:13;22.43;;;16.93;;
10232;SDS011;5161;48.174;11.756;2023-02-28T08:42:43;23.33;;;16.63;;
10232;SDS011;5161;48.174;11.756;2023-02-28T08:45:12;21.53;;;15.93;;
10232;SDS011;5161;48.174;11.756;2023-02-28T08:47:39;22.87;;;16.20;;
10232;SDS011;5161;48.174;11.756;2023-02-28T08:50:05;22.13;;;15.80;;
10232;SDS011;5161;48.174;11.756;2023-02-28T08:52:31;23.40;;;16.90;;
10232;SDS011;5161;48.174;11.756;2023-02-28T08:54:57;24.47;;;17.60;;
10232;SDS011;5161;48.174;11.756;2023-02-28T08:57:23;21.77;;;16.67;;
10232;SDS011;5161;48.174;11.756;2023-02-28T08:59:51;27.10;;;17.57;;
10232;SDS011;5161;48.174;11.756;2023-02-28T09:02:17;25.60;;;16.10;;
10232;SDS011;5161;48.174;11.756;2023-02-28T09:04:42;21.97;;;16.63;;
10232;SDS011;5161;48.174;11.756;2023-02-28T09:07:10;23.40;;;16.90;;
10232;SDS011;5161;48.174;11.756;2023-02-28T09:09:36;25.60;;;18.17;;
10232;SDS011;5161;48.174;11.756;2023-02-28T09:12:01;24.53;;;18.20;;
10232;SDS011;5161;48.174;11.756;2023-02-28T09:14:27;22.50;;;17.37;;
10232;SDS011;5161;48.174;11.756;2023-02-28T09:16:53;23.40;;;17.10;;
10232;SDS011;5161;48.174;11.756;2023-02-28T09:19:19;24.17;;;17.47;;
10232;SDS011;5161;48.174;11.756;2023-02-28T09:21:45;26.40;;;17.70;;
10232;SDS011;5161;48.174;11.756;2023-02-28T09:24:11;23.30;;;16.93;;
10232;SDS011;5161;48.174;11.756;2023-02-28T09:26:39;24.30;;;17.13;;
10232;SDS011;5161;48.174;11.756;2023-02-28T09:29:05;22.97;;;16.37;;
10232;SDS011;5161;48.174;11.756;2023-02-28T09:31:31;28.63;;;17.43;;
10232;SDS011;5161;48.174;11.756;2023-02-28T09:33:58;29.50;;;18.70;;
10232;SDS011;5161;48.174;11.756;2023-02-28T09:36:24;29.60;;;17.70;;
10232;SDS011;5161;48.174;11.756;2023-02-28T09:38:53;25.10;;;17.50;;
10232;SDS011;5161;48.174;11.756;2023-02-28T09:41:20;21.57;;;16.20;;
10232;SDS011;5161;48.174;11.756;2023-02-28T09:43:53;23.57;;;17.03;;
10232;SDS011;5161;48.174;11.756;2023-02-28T09:46:27;22.67;;;16.83;;
10232;SDS011;5161;48.174;11.756;2023-02-28T09:48:59;27.23;;;16.87;;
10232;SDS011;5161;48.174;11.756;2023-02-28T09:54:17;22.27;;;16.10;;
10232;SDS011;5161;48.174;11.756;2023-02-28T09:56:49;27.37;;;17.47;;
10232;SDS011;5161;48.174;11.756;2023-02-28T09:59:22;24.73;;;16.83;;
10232;SDS011;5161;48.174;11.756;2023-02-28T10:02:01;27.60;;;16.80;;
10232;SDS011;5161;48.174;11.756;2023-02-28T10:04:47;22.17;;;16.60;;
10232;SDS011;5161;48.174;11.756;2023-02-28T10:08:03;24.20;;;16.77;;
10232;SDS011;5161;48.174;11.756;2023-02-28T10:13:02;31.77;;;20.53;;
10232;SDS011;5161;48.174;11.756;2023-02-28T10:15:31;22.43;;;16.60;;
10232;SDS011;5161;48.174;11.756;2023-02-28T10:18:01;21.40;;;15.97;;
10232;SDS011;5161;48.174;11.756;2023-02-28T10:20:32;21.63;;;16.07;;
10232;SDS011;5161;48.174;11.756;2023-02-28T10:25:33;23.57;;;16.70;;
10232;SDS011;5161;48.174;11.756;2023-02-28T10:28:13;22.13;;;16.97;;
10232;SDS011;5161;48.174;11.756;2023-02-28T10:30:45;21.33;;;16.40;;
10232;SDS011;5161;48.174;11.756;2023-02-28T10:33:29;21.30;;;16.30;;
10232;SDS011;5161;48.174;11.756;2023-02-28T10:35:59;22.60;;;17.07;;
10232;SDS011;5161;48.174;11.756;2023-02-28T10:38:34;25.07;;;16.63;;
10232;SDS011;5161;48.174;11.756;2023-02-28T10:41:08;22.70;;;17.03;;
10232;SDS011;5161;48.174;11.756;2023-02-28T10:43:39;22.80;;;16.87;;
10232;SDS011;5161;48.174;11.756;2023-02-28T10:48:39;20.70;;;16.30;;
10232;SDS011;5161;48.174;11.756;2023-02-28T10:51:16;22.87;;;16.57;;
10232;SDS011;5161;48.174;11.756;2023-02-28T10:53:51;23.73;;;16.33;;
10232;SDS011;5161;48.174;11.756;2023-02-28T10:56:23;20.60;;;16.90;;
10232;SDS011;5161;48.174;11.756;2023-02-28T11:01:19;25.37;;;17.20;;
10232;SDS011;5161;48.174;11.756;2023-02-28T11:03:49;23.00;;;16.93;;
10232;SDS011;5161;48.174;11.756;2023-02-28T11:06:17;24.80;;;17.20;;
10232;SDS011;5161;48.174;11.756;2023-02-28T11:08:50;23.13;;;17.07;;
10232;SDS011;5161;48.174;11.756;2023-02-28T11:11:18;21.57;;;16.73;;
10232;SDS011;5161;48.174;11.756;2023-02-28T11:13:46;21.83;;;15.83;;
10232;SDS011;5161;48.174;11.756;2023-02-28T11:16:15;21.67;;;16.03;;
10232;SDS011;5161;48.174;11.756;2023-02-28T11:18:48;20.93;;;16.13;;
10232;SDS011;5161;48.174;11.756;2023-02-28T11:21:16;25.80;;;16.93;;
10232;SDS011;5161;48.174;11.756;2023-02-28T11:23:47;21.53;;;16.07;;
10232;SDS011;5161;48.174;11.756;2023-02-28T11:26:16;19.73;;;14.60;;
10232;SDS011;5161;48.174;11.756;2023-02-28T11:29:10;19.77;;;14.57;;
10232;SDS011;5161;48.174;11.756;2023-02-28T11:37:28;22.40;;;15.53;;
10232;SDS011;5161;48.174;11.756;2023-02-28T11:39:55;19.00;;;14.33;;
10232;SDS011;5161;48.174;11.756;2023-02-28T11:42:28;18.40;;;14.87;;
10232;SDS011;5161;48.174;11.756;2023-02-28T11:45:12;19.47;;;14.70;;
10232;SDS011;5161;48.174;11.756;2023-02-28T11:56:38;20.60;;;14.77;;
10232;SDS011;5161;48.174;11.756;2023-02-28T12:02:04;18.40;;;14.77;;
10232;SDS011;5161;48.174;11.756;2023-02-28T12:10:35;18.03;;;14.33;;
10232;SDS011;5161;48.174;11.756;2023-02-28T12:15:58;16.40;;;13.20;;
10232;SDS011;5161;48.174;11.756;2023-02-28T12:21:37;20.47;;;14.13;;
10232;SDS011;5161;48.174;11.756;2023-02-28T12:24:18;18.53;;;14.23;;
10232;SDS011;5161;48.174;11.756;2023-02-28T12:27:15;19.17;;;14.17;;
10232;SDS011;5161;48.174;11.756;2023-02-28T12:29:47;18.50;;;13.83;;
10232;SDS011;5161;48.174;11.756;2023-02-28T12:32:23;20.37;;;13.67;;
10232;SDS011;5161;48.174;11.756;2023-02-28T12:35:16;18.27;;;14.10;;
10232;SDS011;5161;48.174;11.756;2023-02-28T12:37:49;20.17;;;14.50;;
10232;SDS011;5161;48.174;11.756;2023-02-28T12:40:23;16.37;;;14.10;;
10232;SDS011;5161;48.174;11.756;2023-02-28T12:42:53;16.83;;;13.17;;
10232;SDS011;5161;48.174;11.756;2023-02-28T12:45:24;17.17;;;14.00;;
10232;SDS011;5161;48.174;11.756;2023-02-28T12:47:57;14.47;;;12.93;;
10232;SDS011;5161;48.174;11.756;2023-02-28T12:50:26;17.93;;;13.50;;
10232;SDS011;5161;48.174;11.756;2023-02-28T12:55:35;17.67;;;14.17;;
10232;SDS011;5161;48.174;11.756;2023-02-28T12:58:33;15.77;;;13.47;;
10232;SDS011;5161;48.174;11.756;2023-02-28T13:01:08;15.83;;;13.47;;
10232;SDS011;5161;48.174;11.756;2023-02-28T13:11:47;16.30;;;12.53;;
10232;SDS011;5161;48.174;11.756;2023-02-28T13:20:14;19.37;;;13.83;;
10232;SDS011;5161;48.174;11.756;2023-02-28T13:27:48;14.77;;;12.97;;
10232;SDS011;5161;48.174;11.756;2023-02-28T13:38:43;15.23;;;12.40;;
10232;SDS011;5161;48.174;11.756;2023-02-28T13:43:59;17.13;;;13.73;;
10232;SDS011;5161;48.174;11.756;2023-02-28T13:46:27;16.70;;;13.90;;
10232;SDS011;5161;48.174;11.756;2023-02-28T13:48:53;14.43;;;12.73;;
10232;SDS011;5161;48.174;11.756;2023-02-28T13:51:35;15.90;;;13.70;;
10232;SDS011;5161;48.174;11.756;2023-02-28T13:57:06;16.17;;;13.77;;
10232;SDS011;5161;48.174;11.756;2023-02-28T14:00:07;17.77;;;12.77;;
10232;SDS011;5161;48.174;11.756;2023-02-28T14:07:49;16.37;;;12.93;;
10232;SDS011;5161;48.174;11.756;2023-02-28T14:10:28;16.20;;;13.73;;
10232;SDS011;5161;48.174;11.756;2023-02-28T14:12:58;16.03;;;13.90;;
10232;SDS011;5161;48.174;11.756;2023-02-28T14:18:20;17.97;;;13.80;;
10232;SDS011;5161;48.174;11.756;2023-02-28T14:20:52;14.60;;;12.93;;
10232;SDS011;5161;48.174;11.756;2023-02-28T14:31:33;19.37;;;14.63;;
10232;SDS011;5161;48.174;11.756;2023-02-28T14:34:05;16.80;;;14.23;;
10232;SDS011;5161;48.174;11.756;2023-02-28T14:36:39;17.80;;;13.63;;
10232;SDS011;5161;48.174;11.756;2023-02-28T14:39:10;33.93;;;13.97;;
10232;SDS011;5161;48.174;11.756;2023-02-28T14:41:50;14.63;;;12.33;;
10232;SDS011;5161;48.174;11.756;2023-02-28T14:46:56;17.33;;;13.73;;
10232;SDS011;5161;48.174;11.756;2023-02-28T14:49:30;15.27;;;13.07;;
10232;SDS011;5161;48.174;11.756;2023-02-28T14:52:15;20.07;;;12.93;;
10232;SDS011;5161;48.174;11.756;2023-02-28T14:54:54;15.40;;;12.83;;
10232;SDS011;5161;48.174;11.756;2023-02-28T14:57:28;18.60;;;14.07;;
10232;SDS011;5161;48.174;11.756;2023-02-28T14:59:59;17.47;;;13.60;;
10232;SDS011;5161;48.174;11.756;2023-02-28T15:02:39;17.90;;;13.40;;
10232;SDS011;5161;48.174;11.756;2023-02-28T15:07:44;16.33;;;13.43;;
10232;SDS011;5161;48.174;11.756;2023-02-28T15:10:12;39.17;;;14.10;;
10232;SDS011;5161;48.174;11.756;2023-02-28T15:12:46;17.10;;;14.27;;
10232;SDS011;5161;48.174;11.756;2023-02-28T15:15:16;16.70;;;13.50;;
10232;SDS011;5161;48.174;11.756;2023-02-28T15:17:44;15.43;;;12.43;;
10232;SDS011;5161;48.174;11.756;2023-02-28T15:20:12;17.00;;;13.97;;
10232;SDS011;5161;48.174;11.756;2023-02-28T15:22:40;18.23;;;13.23;;
10232;SDS011;5161;48.174;11.756;2023-02-28T15:25:06;17.13;;;13.73;;
10232;SDS011;5161;48.174;11.756;2023-02-28T15:27:37;16.97;;;13.70;;
10232;SDS011;5161;48.174;11.756;2023-02-28T15:30:15;19.30;;;13.63;;
10232;SDS011;5161;48.174;11.756;2023-02-28T15:32:45;16.20;;;13.97;;
10232;SDS011;5161;48.174;11.756;2023-02-28T15:35:33;16.50;;;12.70;;
10232;SDS011;5161;48.174;11.756;2023-02-28T15:38:14;17.67;;;13.27;;
10232;SDS011;5161;48.174;11.756;2023-02-28T15:40:54;16.17;;;13.87;;
10232;SDS011;5161;48.174;11.756;2023-02-28T15:46:07;16.80;;;13.60;;
10232;SDS011;5161;48.174;11.756;2023-02-28T15:48:50;16.57;;;13.13;;
10232;SDS011;5161;48.174;11.756;2023-02-28T15:51:18;15.17;;;13.17;;
10232;SDS011;5161;48.174;11.756;2023-02-28T15:54:10;18.83;;;13.53;;
10232;SDS011;5161;48.174;11.756;2023-02-28T15:56:44;16.70;;;13.77;;
10232;SDS011;5161;48.174;11.756;2023-02-28T15:59:45;17.30;;;14.13;;
10232;SDS011;5161;48.174;11.756;2023-02-28T16:04:34;16.97;;;13.60;;
10232;SDS011;5161;48.174;11.756;2023-02-28T16:07:01;16.10;;;13.90;;
10232;SDS011;5161;48.174;11.756;2023-02-28T16:09:31;16.83;;;13.37;;
10232;SDS011;5161;48.174;11.756;2023-02-28T16:12:00;19.40;;;14.23;;
10232;SDS011;5161;48.174;11.756;2023-02-28T16:14:27;18.13;;;14.10;;
10232;SDS011;5161;48.174;11.756;2023-02-28T16:17:03;17.93;;;13.97;;
10232;SDS011;5161;48.174;11.756;2023-02-28T16:19:30;17.77;;;14.00;;
10232;SDS011;5161;48.174;11.756;2023-02-28T16:21:57;17.17;;;13.63;;
10232;SDS011;5161;48.174;11.756;2023-02-28T16:24:23;21.30;;;14.60;;
10232;SDS011;5161;48.174;11.756;2023-02-28T16:26:49;20.97;;;14.20;;
10232;SDS011;5161;48.174;11.756;2023-02-28T16:29:27;21.80;;;15.00;;
10232;SDS011;5161;48.174;11.756;2023-02-28T16:31:56;20.67;;;14.57;;
10232;SDS011;5161;48.174;11.756;2023-02-28T16:34:22;20.80;;;14.67;;
10232;SDS011;5161;48.174;11.756;2023-02-28T16:36:50;16.93;;;14.30;;
10232;SDS011;5161;48.174;11.756;2023-02-28T16:39:16;23.33;;;13.77;;
10232;SDS011;5161;48.174;11.756;2023-02-28T16:41:43;20.53;;;15.20;;
10232;SDS011;5161;48.174;11.756;2023-02-28T16:47:01;18.73;;;14.10;;
10232;SDS011;5161;48.174;11.756;2023-02-28T16:49:27;19.77;;;14.17;;
10232;SDS011;5161;48.174;11.756;2023-02-28T16:51:53;18.47;;;14.57;;
10232;SDS011;5161;48.174;11.756;2023-02-28T16:54:18;20.80;;;14.93;;
10232;SDS011;5161;48.174;11.756;2023-02-28T16:56:45;17.67;;;14.90;;
10232;SDS011;5161;48.174;11.756;2023-02-28T16:59:12;21.33;;;14.90;;
10232;SDS011;5161;48.174;11.756;2023-02-28T17:01:39;18.07;;;14.77;;
10232;SDS011;5161;48.174;11.756;2023-02-28T17:04:05;20.93;;;14.90;;
10232;SDS011;5161;48.174;11.756;2023-02-28T17:06:31;20.80;;;14.90;;